Time;durP1;ratioP1;P1;durP2;ratioP2;P2;SDS_P1;SDS_P2;PMS_P1;PMS_P2;Temp;Humidity;BMP_temperature;BMP_pressure;BME280_temperature;BME280_humidity;BME280_pressure;Samples;Min_cycle;Max_cycle;Signal;HPM_P1;HPM_P2
2022/07/02 07:25:34;;;;;;;3.30;1.63;;;;;;;;;;6212593;23;20032;-75
2022/07/02 07:28:00;;;;;;;2.03;1.60;;;;;;;;;;6226179;23;20013;-81
2022/07/02 07:30:25;;;;;;;1.92;1.80;;;;;;;;;;6224352;23;20001;-78
2022/07/02 07:32:51;;;;;;;2.45;1.50;;;;;;;;;;6227467;23;20012;-81
2022/07/02 07:35:16;;;;;;;4.00;1.65;;;;;;;;;;6227466;23;20008;-79
2022/07/02 07:37:42;;;;;;;1.75;1.65;;;;;;;;;;6227415;23;20004;-79
2022/07/02 07:40:11;;;;;;;3.33;1.58;;;;;;;;;;6224544;23;20004;-78
2022/07/02 07:42:36;;;;;;;1.88;1.67;;;;;;;;;;6227658;23;20344;-79
2022/07/02 07:45:03;;;;;;;3.35;1.60;;;;;;;;;;6226171;23;20080;-79
2022/07/02 07:47:29;;;;;;;1.88;1.50;;;;;;;;;;6224601;23;20005;-79
2022/07/02 07:49:54;;;;;;;1.98;1.50;;;;;;;;;;6223006;23;20008;-79
2022/07/02 07:52:20;;;;;;;3.13;1.88;;;;;;;;;;6222847;23;20032;-80
2022/07/02 07:54:45;;;;;;;1.85;1.75;;;;;;;;;;6219159;23;20001;-79
2022/07/02 07:57:11;;;;;;;1.80;1.65;;;;;;;;;;6220201;23;20081;-80
2022/07/02 07:59:36;;;;;;;2.10;1.38;;;;;;;;;;6223108;23;20004;-79
2022/07/02 08:02:02;;;;;;;1.77;1.50;;;;;;;;;;6224078;23;20008;-79
2022/07/02 08:04:29;;;;;;;3.72;1.85;;;;;;;;;;6223207;23;20001;-78
2022/07/02 08:06:54;;;;;;;3.05;2.20;;;;;;;;;;6197122;23;20088;-79
2022/07/02 08:09:20;;;;;;;2.20;2.00;;;;;;;;;;6223207;23;19996;-79
2022/07/02 08:11:45;;;;;;;2.33;1.60;;;;;;;;;;6222269;23;20005;-78
2022/07/02 08:14:11;;;;;;;1.75;1.65;;;;;;;;;;6222179;23;20075;-79
2022/07/02 08:16:36;;;;;;;2.30;1.67;;;;;;;;;;6223795;23;20028;-79
2022/07/02 08:19:02;;;;;;;2.58;1.60;;;;;;;;;;6225779;23;20059;-78
2022/07/02 08:21:27;;;;;;;2.45;1.80;;;;;;;;;;6224411;23;19996;-78
2022/07/02 08:23:53;;;;;;;3.00;1.83;;;;;;;;;;6224238;23;20000;-79
2022/07/02 08:26:18;;;;;;;3.05;1.63;;;;;;;;;;6224367;23;20377;-79
2022/07/02 08:28:44;;;;;;;3.75;1.48;;;;;;;;;;6220323;23;20301;-79
2022/07/02 08:31:09;;;;;;;2.47;2.10;;;;;;;;;;6217745;23;20084;-78
2022/07/02 08:33:35;;;;;;;2.00;1.90;;;;;;;;;;6217368;23;20001;-79
2022/07/02 08:36:01;;;;;;;2.42;1.80;;;;;;;;;;6217734;23;20039;-79
2022/07/02 08:38:27;;;;;;;2.60;1.60;;;;;;;;;;6217798;23;20011;-79
2022/07/02 08:40:52;;;;;;;1.90;1.77;;;;;;;;;;6191228;23;20130;-78
2022/07/02 08:43:23;;;;;;;3.58;1.90;;;;;;;;;;6217419;23;20008;-79
2022/07/02 08:45:51;;;;;;;1.88;1.65;;;;;;;;;;6217552;23;20005;-79
2022/07/02 08:48:17;;;;;;;1.80;1.70;;;;;;;;;;6216990;23;20084;-78
2022/07/02 08:50:45;;;;;;;2.03;1.90;;;;;;;;;;6216753;23;20001;-77
2022/07/02 08:53:10;;;;;;;2.28;2.00;;;;;;;;;;6217197;23;20001;-78
2022/07/02 08:55:37;;;;;;;1.90;1.70;;;;;;;;;;6217599;23;20000;-81
2022/07/02 08:58:04;;;;;;;4.18;1.90;;;;;;;;;;6217400;23;20080;-83
2022/07/02 09:00:30;;;;;;;3.67;1.90;;;;;;;;;;6217637;23;20004;-78
2022/07/02 09:02:58;;;;;;;4.20;1.92;;;;;;;;;;6216596;23;20031;-77
2022/07/02 09:05:26;;;;;;;2.65;1.90;;;;;;;;;;6217749;23;20005;-79
2022/07/02 09:07:52;;;;;;;3.85;1.70;;;;;;;;;;6217767;23;20027;-79
2022/07/02 09:10:20;;;;;;;4.45;1.73;;;;;;;;;;6218067;23;20068;-79
2022/07/02 09:12:47;;;;;;;2.58;1.60;;;;;;;;;;6218049;23;20001;-78
2022/07/02 09:15:14;;;;;;;2.50;1.90;;;;;;;;;;6217872;23;20004;-79
2022/07/02 09:17:43;;;;;;;2.00;1.80;;;;;;;;;;6217547;23;20072;-79
2022/07/02 09:20:11;;;;;;;2.60;1.52;;;;;;;;;;6216996;23;20010;-79
2022/07/02 09:22:41;;;;;;;3.13;1.50;;;;;;;;;;6217108;23;20008;-79
2022/07/02 09:25:13;;;;;;;2.20;2.00;;;;;;;;;;6216979;23;20004;-79
2022/07/02 09:27:39;;;;;;;2.83;1.70;;;;;;;;;;6216710;23;20063;-79
2022/07/02 09:30:07;;;;;;;2.13;1.63;;;;;;;;;;6190479;23;20001;-79
2022/07/02 09:32:44;;;;;;;4.22;2.10;;;;;;;;;;6216697;23;20000;-79
2022/07/02 09:35:20;;;;;;;2.28;1.60;;;;;;;;;;6217489;23;20076;-79
2022/07/02 09:37:50;;;;;;;2.38;1.70;;;;;;;;;;6215604;23;20328;-79
2022/07/02 09:40:16;;;;;;;1.75;1.65;;;;;;;;;;6217082;23;20078;-78
2022/07/02 09:42:47;;;;;;;2.20;1.95;;;;;;;;;;6216021;23;20012;-79
2022/07/02 09:45:14;;;;;;;2.17;1.77;;;;;;;;;;6215358;23;20005;-79
2022/07/02 09:47:48;;;;;;;2.28;1.52;;;;;;;;;;6216979;23;20361;-80
2022/07/02 09:50:14;;;;;;;2.15;1.75;;;;;;;;;;6216928;23;20005;-79
2022/07/02 09:52:50;;;;;;;4.50;2.22;;;;;;;;;;6216771;23;20004;-79
2022/07/02 09:55:23;;;;;;;3.42;1.83;;;;;;;;;;6216695;23;20005;-79
2022/07/02 09:57:53;;;;;;;4.22;1.98;;;;;;;;;;6216887;23;20005;-79
2022/07/02 10:00:20;;;;;;;4.60;2.10;;;;;;;;;;6216880;23;20009;-79
2022/07/02 10:02:50;;;;;;;1.80;1.70;;;;;;;;;;6216594;23;20005;-79
2022/07/02 10:05:22;;;;;;;2.08;1.88;;;;;;;;;;6216682;23;20012;-79
2022/07/02 10:07:48;;;;;;;3.40;2.00;;;;;;;;;;6216736;23;20371;-79
2022/07/02 10:10:13;;;;;;;3.20;1.90;;;;;;;;;;6217111;23;20001;-79
2022/07/02 10:12:42;;;;;;;3.63;2.00;;;;;;;;;;6216464;23;20027;-79
2022/07/02 10:15:09;;;;;;;4.43;1.88;;;;;;;;;;6216882;23;20001;-79
2022/07/02 10:17:36;;;;;;;2.17;1.92;;;;;;;;;;6216174;23;20454;-79
2022/07/02 10:20:02;;;;;;;1.88;1.77;;;;;;;;;;6216138;23;20000;-79
2022/07/02 10:22:28;;;;;;;3.47;1.75;;;;;;;;;;6216353;23;20004;-79
2022/07/02 10:24:55;;;;;;;4.35;1.90;;;;;;;;;;6216568;23;20009;-79
2022/07/02 10:27:21;;;;;;;2.33;1.80;;;;;;;;;;6215974;23;20066;-79
2022/07/02 10:29:47;;;;;;;2.30;1.70;;;;;;;;;;6216534;23;20051;-79
2022/07/02 10:32:26;;;;;;;3.22;2.08;;;;;;;;;;6216861;23;20008;-79
2022/07/02 10:35:02;;;;;;;4.82;1.95;;;;;;;;;;6218075;23;20011;-79
2022/07/02 10:37:27;;;;;;;3.50;2.00;;;;;;;;;;6218456;23;20005;-79
2022/07/02 10:40:00;;;;;;;3.03;2.35;;;;;;;;;;6218101;23;20011;-79
2022/07/02 10:42:45;;;;;;;2.22;2.03;;;;;;;;;;6217705;23;20004;-77
2022/07/02 10:45:29;;;;;;;5.88;2.00;;;;;;;;;;6191323;23;20066;-80
2022/07/02 10:48:05;;;;;;;3.60;2.40;;;;;;;;;;6218391;23;20001;-87
2022/07/02 10:50:39;;;;;;;3.35;2.00;;;;;;;;;;6217995;23;20006;-82
2022/07/02 10:53:21;;;;;;;4.18;2.95;;;;;;;;;;6218196;23;20091;-82
2022/07/02 10:55:53;;;;;;;2.38;2.17;;;;;;;;;;6218047;23;20004;-80
2022/07/02 10:58:20;;;;;;;2.80;2.28;;;;;;;;;;6217963;23;20031;-80
2022/07/02 11:00:46;;;;;;;3.63;2.23;;;;;;;;;;6217975;23;20004;-81
2022/07/02 11:03:26;;;;;;;2.78;2.42;;;;;;;;;;6217960;23;20009;-81
2022/07/02 11:05:56;;;;;;;2.88;2.20;;;;;;;;;;6217968;23;20051;-83
2022/07/02 11:08:49;;;;;;;2.60;2.00;;;;;;;;;;6217948;23;20004;-80
2022/07/02 11:11:19;;;;;;;3.10;2.22;;;;;;;;;;6217824;23;20035;-80
2022/07/02 11:13:50;;;;;;;2.72;2.53;;;;;;;;;;6217889;23;20408;-81
2022/07/02 11:16:41;;;;;;;3.22;2.75;;;;;;;;;;6217975;23;20439;-81
2022/07/02 11:19:19;;;;;;;4.45;3.10;;;;;;;;;;6191198;23;20004;-79
2022/07/02 11:21:47;;;;;;;5.47;2.67;;;;;;;;;;6217553;23;20005;-79
2022/07/02 11:24:20;;;;;;;3.55;2.85;;;;;;;;;;6217801;23;20016;-77
2022/07/02 11:26:46;;;;;;;3.60;2.72;;;;;;;;;;6217726;23;20062;-78
2022/07/02 11:29:13;;;;;;;4.30;2.67;;;;;;;;;;6217798;23;20083;-81
2022/07/02 11:31:42;;;;;;;3.90;2.80;;;;;;;;;;6217899;23;20383;-80
2022/07/02 11:34:08;;;;;;;3.58;2.78;;;;;;;;;;6218005;23;20004;-79
2022/07/02 11:36:36;;;;;;;6.75;3.17;;;;;;;;;;6217794;23;20035;-80
2022/07/02 11:39:08;;;;;;;5.78;2.90;;;;;;;;;;6217522;23;19996;-77
2022/07/02 11:41:34;;;;;;;7.00;3.50;;;;;;;;;;6217880;23;20005;-79
2022/07/02 11:44:11;;;;;;;6.03;3.00;;;;;;;;;;6217031;23;20008;-79
2022/07/02 11:46:36;;;;;;;9.60;3.80;;;;;;;;;;6217546;23;20012;-79
2022/07/02 11:49:02;;;;;;;5.90;3.00;;;;;;;;;;6217450;23;20008;-78
2022/07/02 11:51:27;;;;;;;9.73;3.50;;;;;;;;;;6217649;23;20063;-78
2022/07/02 11:54:03;;;;;;;5.97;3.70;;;;;;;;;;6217744;23;20079;-78
2022/07/02 11:56:31;;;;;;;9.80;3.60;;;;;;;;;;6190746;23;20336;-78
2022/07/02 11:58:57;;;;;;;5.50;3.33;;;;;;;;;;6217765;23;20020;-78
2022/07/02 12:01:31;;;;;;;6.38;3.25;;;;;;;;;;6217373;23;20008;-78
2022/07/02 12:04:04;;;;;;;6.45;3.45;;;;;;;;;;6217285;23;20009;-78
2022/07/02 12:06:41;;;;;;;7.40;3.85;;;;;;;;;;6217094;23;20042;-78
2022/07/02 12:09:09;;;;;;;10.82;3.90;;;;;;;;;;6217339;23;20008;-78
2022/07/02 12:11:37;;;;;;;5.03;3.60;;;;;;;;;;6217130;23;20016;-78
2022/07/02 12:14:04;;;;;;;8.38;3.40;;;;;;;;;;6217275;23;20309;-78
2022/07/02 12:16:31;;;;;;;7.75;3.58;;;;;;;;;;6217475;23;19993;-78
2022/07/02 12:18:57;;;;;;;5.25;3.55;;;;;;;;;;6217275;23;20008;-79
2022/07/02 12:21:29;;;;;;;7.50;3.67;;;;;;;;;;6217160;23;20005;-78
2022/07/02 12:23:55;;;;;;;6.50;3.60;;;;;;;;;;6216842;23;20005;-78
2022/07/02 12:26:25;;;;;;;7.03;3.40;;;;;;;;;;6217232;23;20039;-78
2022/07/02 12:31:47;;;;;;;5.03;3.50;;;;;;;;;;6216833;23;20027;-79
2022/07/02 12:34:13;;;;;;;7.90;3.80;;;;;;;;;;6216822;23;20027;-78
2022/07/02 12:36:50;;;;;;;7.00;3.63;;;;;;;;;;6190478;23;20412;-78
2022/07/02 12:39:16;;;;;;;6.00;3.83;;;;;;;;;;6217193;23;20302;-78
2022/07/02 12:41:41;;;;;;;7.72;3.75;;;;;;;;;;6216911;23;20008;-79
2022/07/02 12:44:18;;;;;;;13.20;3.65;;;;;;;;;;6216730;23;20012;-79
2022/07/02 12:46:46;;;;;;;8.55;4.03;;;;;;;;;;6217073;23;20347;-79
2022/07/02 12:49:25;;;;;;;8.18;4.28;;;;;;;;;;6190417;23;20001;-79
2022/07/02 12:52:02;;;;;;;7.28;3.72;;;;;;;;;;6216565;23;20424;-79
2022/07/02 12:54:39;;;;;;;6.30;3.53;;;;;;;;;;6216894;23;20008;-78
2022/07/02 12:57:19;;;;;;;8.88;3.83;;;;;;;;;;6216668;23;20004;-78
2022/07/02 12:59:45;;;;;;;5.93;3.97;;;;;;;;;;6216948;23;20005;-78
2022/07/02 13:02:22;;;;;;;7.55;4.00;;;;;;;;;;6217163;23;20359;-78
2022/07/02 13:04:48;;;;;;;7.13;4.28;;;;;;;;;;6216805;23;20000;-78
2022/07/02 13:07:15;;;;;;;8.50;3.83;;;;;;;;;;6190005;23;20055;-79
2022/07/02 13:09:41;;;;;;;9.70;4.03;;;;;;;;;;6216822;23;20027;-78
2022/07/02 13:12:07;;;;;;;6.18;3.90;;;;;;;;;;6216950;23;20019;-78
2022/07/02 13:14:32;;;;;;;4.95;3.75;;;;;;;;;;6216851;23;20013;-78
2022/07/02 13:16:58;;;;;;;5.75;3.30;;;;;;;;;;6216698;23;20036;-78
2022/07/02 13:19:23;;;;;;;5.22;3.80;;;;;;;;;;6216684;23;20413;-78
2022/07/02 13:21:49;;;;;;;8.60;4.07;;;;;;;;;;6216386;23;20001;-78
2022/07/02 13:24:14;;;;;;;6.55;3.75;;;;;;;;;;6216865;23;20016;-78
2022/07/02 13:26:39;;;;;;;8.63;3.80;;;;;;;;;;6216436;23;20063;-80
2022/07/02 13:29:05;;;;;;;7.10;3.72;;;;;;;;;;6216387;23;20057;-78
2022/07/02 13:31:32;;;;;;;6.30;3.95;;;;;;;;;;6215780;23;20005;-78
2022/07/02 13:33:59;;;;;;;7.53;3.88;;;;;;;;;;6216332;23;20004;-78
2022/07/02 13:36:24;;;;;;;7.13;3.97;;;;;;;;;;6216357;23;20001;-79
2022/07/02 13:38:50;;;;;;;4.45;3.75;;;;;;;;;;6216592;23;20011;-78
2022/07/02 13:41:15;;;;;;;8.18;3.80;;;;;;;;;;6216269;23;20005;-78
2022/07/02 13:43:41;;;;;;;7.63;3.95;;;;;;;;;;6216254;23;20367;-78
2022/07/02 13:46:06;;;;;;;7.38;4.35;;;;;;;;;;6216341;23;20004;-78
2022/07/02 13:48:31;;;;;;;8.15;3.95;;;;;;;;;;6216415;23;20416;-78
2022/07/02 13:50:57;;;;;;;8.00;3.85;;;;;;;;;;6216197;23;20428;-77
2022/07/02 13:53:22;;;;;;;4.97;4.47;;;;;;;;;;6216282;23;20335;-77
2022/07/02 13:55:48;;;;;;;5.60;4.20;;;;;;;;;;6216367;23;20324;-78
2022/07/02 13:58:13;;;;;;;6.25;3.78;;;;;;;;;;6216345;23;20000;-77
2022/07/02 14:00:39;;;;;;;4.32;3.92;;;;;;;;;;6216279;23;20443;-78
2022/07/02 14:03:04;;;;;;;6.30;3.60;;;;;;;;;;6216173;23;20335;-77
2022/07/02 14:05:30;;;;;;;5.53;3.80;;;;;;;;;;6215876;23;20039;-77
2022/07/02 14:07:56;;;;;;;8.35;3.80;;;;;;;;;;6215893;23;20404;-77
2022/07/02 14:10:21;;;;;;;6.60;3.90;;;;;;;;;;6216173;23;20004;-77
2022/07/02 14:12:46;;;;;;;4.32;3.53;;;;;;;;;;6215962;23;20012;-77
2022/07/02 14:15:12;;;;;;;4.95;3.70;;;;;;;;;;6216412;23;20009;-76
2022/07/02 14:17:38;;;;;;;4.72;3.33;;;;;;;;;;6220372;23;20009;-78
2022/07/02 14:20:04;;;;;;;5.72;3.22;;;;;;;;;;6215876;23;20324;-78
2022/07/02 14:22:29;;;;;;;6.97;3.22;;;;;;;;;;6216163;23;20001;-77
2022/07/02 14:24:55;;;;;;;3.08;2.70;;;;;;;;;;6216544;23;20379;-77
2022/07/02 14:27:21;;;;;;;3.85;3.17;;;;;;;;;;6216092;23;20091;-77
2022/07/02 14:29:47;;;;;;;5.95;3.30;;;;;;;;;;6189365;23;20383;-77
2022/07/02 14:32:12;;;;;;;3.08;2.78;;;;;;;;;;6216006;23;20009;-78
2022/07/02 14:34:38;;;;;;;3.67;2.30;;;;;;;;;;6216379;23;20044;-77
2022/07/02 14:37:04;;;;;;;3.75;2.50;;;;;;;;;;6216318;23;20060;-77
2022/07/02 14:39:30;;;;;;;4.75;3.40;;;;;;;;;;6216186;23;20079;-78
2022/07/02 14:41:56;;;;;;;3.38;2.80;;;;;;;;;;6215919;23;20001;-78
2022/07/02 14:44:22;;;;;;;4.00;2.58;;;;;;;;;;6216156;23;20015;-78
2022/07/02 14:46:47;;;;;;;2.70;2.30;;;;;;;;;;6215405;23;20035;-78
2022/07/02 14:49:13;;;;;;;3.10;2.83;;;;;;;;;;6215844;23;20027;-78
2022/07/02 14:51:38;;;;;;;4.07;2.80;;;;;;;;;;6216135;23;20015;-77
2022/07/02 14:54:04;;;;;;;6.85;3.22;;;;;;;;;;6216095;23;20431;-78
2022/07/02 14:56:30;;;;;;;4.05;3.03;;;;;;;;;;6216364;23;20000;-77
2022/07/02 14:58:55;;;;;;;4.10;2.83;;;;;;;;;;6215852;23;20384;-77
2022/07/02 15:01:21;;;;;;;6.72;2.90;;;;;;;;;;6216036;23;20031;-77
2022/07/02 15:03:46;;;;;;;4.63;3.22;;;;;;;;;;6215926;23;20012;-77
2022/07/02 15:06:12;;;;;;;4.03;2.50;;;;;;;;;;6216053;23;20428;-76
2022/07/02 16:25:10;;;;;;;6.53;3.30;;;;;;;;;;6202300;23;20387;-77
2022/07/02 16:27:36;;;;;;;3.33;2.90;;;;;;;;;;6216761;23;20339;-79
2022/07/02 16:30:03;;;;;;;3.63;2.65;;;;;;;;;;6217014;23;20416;-77
2022/07/02 16:32:41;;;;;;;3.90;3.08;;;;;;;;;;6216947;23;20005;-77
2022/07/02 16:35:13;;;;;;;4.95;3.08;;;;;;;;;;6216854;23;20005;-77
2022/07/02 16:37:40;;;;;;;3.55;3.22;;;;;;;;;;6217307;23;20001;-77
